Terminal Aerodrome Forecast
Issued by NWS

Home | Current Version | Previous Version | Text Only | Print | Product List | Glossary On
Versions: 1 2 3 4 5 6 7 8 9 10 11 12 13 14 15 16 17 18 19 20 21 22 23 24 25 26 27 28 29 30 31 32 33 34 35 36 37 38 39 40 41 42 43 44 45 46 47 48 49 50
367
FTUS45 KBOU 290432 AAC
TAFAPA
TAF AMD
KAPA 290432Z 2905/2924 03014KT 1SM -SN BR OVC008
      TEMPO 2905/2909 1/2SM SN FZFG VV003
     FM290900 04013G20KT 1 1/2SM -SN BR BKN004 OVC007
     FM291600 02013KT 2SM -SN BR BKN008 OVC012
     FM292100 01014G22KT 4SM -SN BR SCT012 OVC022=

USA.gov is the U.S. government's official web portal to all federal, state and local government web resources and services.